sensor_id;sensor_type;location;lat;lon;timestamp;temperature;humidity
24226;DHT22;51462;51.422;5.514;2024-02-26T00:02:14;9.20;99.90
24226;DHT22;51462;51.422;5.514;2024-02-26T00:04:40;9.40;99.90
24226;DHT22;51462;51.422;5.514;2024-02-26T00:07:06;9.20;99.90
24226;DHT22;51462;51.422;5.514;2024-02-26T00:09:32;9.30;99.90
24226;DHT22;51462;51.422;5.514;2024-02-26T00:12:01;9.30;99.90
24226;DHT22;51462;51.422;5.514;2024-02-26T00:14:27;9.20;99.90
24226;DHT22;51462;51.422;5.514;2024-02-26T00:16:52;9.30;99.90
24226;DHT22;51462;51.422;5.514;2024-02-26T00:19:18;9.10;99.90
24226;DHT22;51462;51.422;5.514;2024-02-26T00:21:43;9.30;99.90
24226;DHT22;51462;51.422;5.514;2024-02-26T00:24:09;9.20;99.90
24226;DHT22;51462;51.422;5.514;2024-02-26T00:26:34;9.10;99.90
24226;DHT22;51462;51.422;5.514;2024-02-26T00:29:00;9.40;99.90
24226;DHT22;51462;51.422;5.514;2024-02-26T00:31:26;9.50;99.90
24226;DHT22;51462;51.422;5.514;2024-02-26T00:33:51;9.40;99.90
24226;DHT22;51462;51.422;5.514;2024-02-26T00:36:17;9.40;99.90
24226;DHT22;51462;51.422;5.514;2024-02-26T00:38:44;9.30;99.90
24226;DHT22;51462;51.422;5.514;2024-02-26T00:41:11;9.20;99.90
24226;DHT22;51462;51.422;5.514;2024-02-26T00:43:37;9.40;99.90
24226;DHT22;51462;51.422;5.514;2024-02-26T00:46:04;9.00;99.90
24226;DHT22;51462;51.422;5.514;2024-02-26T00:48:30;9.10;99.90
24226;DHT22;51462;51.422;5.514;2024-02-26T00:50:55;9.10;99.90
24226;DHT22;51462;51.422;5.514;2024-02-26T00:53:21;9.10;99.90
24226;DHT22;51462;51.422;5.514;2024-02-26T00:55:47;9.20;99.90
24226;DHT22;51462;51.422;5.514;2024-02-26T00:58:12;9.10;99.90
24226;DHT22;51462;51.422;5.514;2024-02-26T01:00:38;9.20;99.90
24226;DHT22;51462;51.422;5.514;2024-02-26T01:03:04;9.20;99.90
24226;DHT22;51462;51.422;5.514;2024-02-26T01:05:30;9.40;99.90
24226;DHT22;51462;51.422;5.514;2024-02-26T01:07:55;9.40;99.90
24226;DHT22;51462;51.422;5.514;2024-02-26T01:10:21;9.10;99.90
24226;DHT22;51462;51.422;5.514;2024-02-26T01:12:46;9.10;99.90
24226;DHT22;51462;51.422;5.514;2024-02-26T01:15:13;8.90;99.90
24226;DHT22;51462;51.422;5.514;2024-02-26T01:17:38;9.00;99.90
24226;DHT22;51462;51.422;5.514;2024-02-26T01:20:05;9.30;99.90
24226;DHT22;51462;51.422;5.514;2024-02-26T01:22:31;9.40;99.90
24226;DHT22;51462;51.422;5.514;2024-02-26T01:24:56;9.20;99.90
24226;DHT22;51462;51.422;5.514;2024-02-26T01:27:22;9.20;99.90
24226;DHT22;51462;51.422;5.514;2024-02-26T01:29:52;9.10;99.90
24226;DHT22;51462;51.422;5.514;2024-02-26T01:32:17;9.20;99.90
24226;DHT22;51462;51.422;5.514;2024-02-26T01:34:43;9.10;99.90
24226;DHT22;51462;51.422;5.514;2024-02-26T01:37:08;9.10;99.90
24226;DHT22;51462;51.422;5.514;2024-02-26T01:39:34;9.30;99.90
24226;DHT22;51462;51.422;5.514;2024-02-26T01:42:00;9.40;99.90
24226;DHT22;51462;51.422;5.514;2024-02-26T01:44:26;9.20;99.90
24226;DHT22;51462;51.422;5.514;2024-02-26T01:46:52;9.20;99.90
24226;DHT22;51462;51.422;5.514;2024-02-26T01:49:18;9.30;99.90
24226;DHT22;51462;51.422;5.514;2024-02-26T01:51:45;9.30;99.90
24226;DHT22;51462;51.422;5.514;2024-02-26T01:54:11;9.30;99.90
24226;DHT22;51462;51.422;5.514;2024-02-26T01:56:37;9.20;99.90
24226;DHT22;51462;51.422;5.514;2024-02-26T01:59:05;9.30;99.90
24226;DHT22;51462;51.422;5.514;2024-02-26T02:01:33;9.20;99.90
24226;DHT22;51462;51.422;5.514;2024-02-26T02:04:00;9.20;99.90
24226;DHT22;51462;51.422;5.514;2024-02-26T02:06:27;9.50;99.90
24226;DHT22;51462;51.422;5.514;2024-02-26T02:08:54;9.50;99.90
24226;DHT22;51462;51.422;5.514;2024-02-26T02:11:20;9.30;99.90
24226;DHT22;51462;51.422;5.514;2024-02-26T02:13:46;9.20;99.90
24226;DHT22;51462;51.422;5.514;2024-02-26T02:16:12;9.20;99.90
24226;DHT22;51462;51.422;5.514;2024-02-26T02:18:37;9.20;99.90
24226;DHT22;51462;51.422;5.514;2024-02-26T02:21:03;9.00;99.90
24226;DHT22;51462;51.422;5.514;2024-02-26T02:23:29;9.20;99.90
24226;DHT22;51462;51.422;5.514;2024-02-26T02:25:56;9.40;99.90
24226;DHT22;51462;51.422;5.514;2024-02-26T02:28:23;9.40;99.90
24226;DHT22;51462;51.422;5.514;2024-02-26T02:30:50;9.30;99.90
24226;DHT22;51462;51.422;5.514;2024-02-26T02:33:16;9.30;99.90
24226;DHT22;51462;51.422;5.514;2024-02-26T02:35:42;9.10;99.90
24226;DHT22;51462;51.422;5.514;2024-02-26T02:38:08;9.20;99.90
24226;DHT22;51462;51.422;5.514;2024-02-26T02:40:33;9.10;99.90
24226;DHT22;51462;51.422;5.514;2024-02-26T02:42:59;9.30;99.90
24226;DHT22;51462;51.422;5.514;2024-02-26T02:45:27;9.40;99.90
24226;DHT22;51462;51.422;5.514;2024-02-26T02:47:53;9.30;99.90
24226;DHT22;51462;51.422;5.514;2024-02-26T02:50:18;9.40;99.90
24226;DHT22;51462;51.422;5.514;2024-02-26T02:52:44;9.40;99.90
24226;DHT22;51462;51.422;5.514;2024-02-26T02:55:09;9.30;99.90
24226;DHT22;51462;51.422;5.514;2024-02-26T02:57:35;9.30;99.90
24226;DHT22;51462;51.422;5.514;2024-02-26T03:00:07;9.20;99.90
24226;DHT22;51462;51.422;5.514;2024-02-26T03:02:33;9.30;99.90
24226;DHT22;51462;51.422;5.514;2024-02-26T03:05:01;9.40;99.90
24226;DHT22;51462;51.422;5.514;2024-02-26T03:07:27;9.40;99.90
24226;DHT22;51462;51.422;5.514;2024-02-26T03:09:53;9.40;99.90
24226;DHT22;51462;51.422;5.514;2024-02-26T03:12:18;9.40;99.90
24226;DHT22;51462;51.422;5.514;2024-02-26T03:14:44;9.50;99.90
24226;DHT22;51462;51.422;5.514;2024-02-26T03:17:09;9.50;99.90
24226;DHT22;51462;51.422;5.514;2024-02-26T03:19:35;9.50;99.90
24226;DHT22;51462;51.422;5.514;2024-02-26T03:22:00;9.60;99.90
24226;DHT22;51462;51.422;5.514;2024-02-26T03:24:26;9.50;99.90
24226;DHT22;51462;51.422;5.514;2024-02-26T03:26:51;9.50;99.90
24226;DHT22;51462;51.422;5.514;2024-02-26T03:29:17;9.40;99.90
24226;DHT22;51462;51.422;5.514;2024-02-26T03:31:43;9.30;99.90
24226;DHT22;51462;51.422;5.514;2024-02-26T03:34:08;9.20;99.90
24226;DHT22;51462;51.422;5.514;2024-02-26T03:36:34;9.30;99.90
24226;DHT22;51462;51.422;5.514;2024-02-26T03:38:59;9.40;99.90
24226;DHT22;51462;51.422;5.514;2024-02-26T03:41:25;9.40;99.90
24226;DHT22;51462;51.422;5.514;2024-02-26T03:43:51;9.20;99.90
24226;DHT22;51462;51.422;5.514;2024-02-26T03:46:17;9.20;99.90
24226;DHT22;51462;51.422;5.514;2024-02-26T03:48:42;9.40;99.90
24226;DHT22;51462;51.422;5.514;2024-02-26T03:51:09;9.50;99.90
24226;DHT22;51462;51.422;5.514;2024-02-26T03:53:36;9.50;99.90
24226;DHT22;51462;51.422;5.514;2024-02-26T03:56:05;9.40;99.90
24226;DHT22;51462;51.422;5.514;2024-02-26T03:58:31;9.40;99.90
24226;DHT22;51462;51.422;5.514;2024-02-26T04:00:56;9.30;99.90
24226;DHT22;51462;51.422;5.514;2024-02-26T04:03:22;9.30;99.90
24226;DHT22;51462;51.422;5.514;2024-02-26T04:05:47;9.30;99.90
24226;DHT22;51462;51.422;5.514;2024-02-26T04:08:13;9.30;99.90
24226;DHT22;51462;51.422;5.514;2024-02-26T04:10:39;9.40;99.90
24226;DHT22;51462;51.422;5.514;2024-02-26T04:13:06;9.40;99.90
24226;DHT22;51462;51.422;5.514;2024-02-26T04:15:32;9.30;99.90
24226;DHT22;51462;51.422;5.514;2024-02-26T04:17:58;9.20;99.90
24226;DHT22;51462;51.422;5.514;2024-02-26T04:20:23;9.40;99.90
24226;DHT22;51462;51.422;5.514;2024-02-26T04:22:49;9.40;99.90
24226;DHT22;51462;51.422;5.514;2024-02-26T04:25:14;9.30;99.90
24226;DHT22;51462;51.422;5.514;2024-02-26T04:27:40;9.20;99.90
24226;DHT22;51462;51.422;5.514;2024-02-26T04:30:06;9.50;99.90
24226;DHT22;51462;51.422;5.514;2024-02-26T04:32:32;9.50;99.90
24226;DHT22;51462;51.422;5.514;2024-02-26T04:35:00;9.40;99.90
24226;DHT22;51462;51.422;5.514;2024-02-26T04:37:25;9.50;99.90
24226;DHT22;51462;51.422;5.514;2024-02-26T04:39:59;9.50;99.90
24226;DHT22;51462;51.422;5.514;2024-02-26T04:42:25;9.40;99.90
24226;DHT22;51462;51.422;5.514;2024-02-26T04:44:51;9.50;99.90
24226;DHT22;51462;51.422;5.514;2024-02-26T04:47:16;9.50;99.90
24226;DHT22;51462;51.422;5.514;2024-02-26T04:49:42;9.50;99.90
24226;DHT22;51462;51.422;5.514;2024-02-26T04:52:07;9.50;99.90
24226;DHT22;51462;51.422;5.514;2024-02-26T04:54:33;9.40;99.90
24226;DHT22;51462;51.422;5.514;2024-02-26T04:56:59;9.30;99.90
24226;DHT22;51462;51.422;5.514;2024-02-26T04:59:24;9.40;99.90
24226;DHT22;51462;51.422;5.514;2024-02-26T05:01:50;9.40;99.90
24226;DHT22;51462;51.422;5.514;2024-02-26T05:04:18;9.40;99.90
24226;DHT22;51462;51.422;5.514;2024-02-26T05:06:43;9.40;99.90
24226;DHT22;51462;51.422;5.514;2024-02-26T05:09:09;9.60;99.90
24226;DHT22;51462;51.422;5.514;2024-02-26T05:11:34;9.60;99.90
24226;DHT22;51462;51.422;5.514;2024-02-26T05:14:00;9.60;99.90
24226;DHT22;51462;51.422;5.514;2024-02-26T05:16:26;9.50;99.90
24226;DHT22;51462;51.422;5.514;2024-02-26T05:18:52;9.50;99.90
24226;DHT22;51462;51.422;5.514;2024-02-26T05:21:18;9.50;99.90
24226;DHT22;51462;51.422;5.514;2024-02-26T05:23:43;9.30;99.90
24226;DHT22;51462;51.422;5.514;2024-02-26T05:26:10;9.30;99.90
24226;DHT22;51462;51.422;5.514;2024-02-26T05:28:36;9.30;99.90
24226;DHT22;51462;51.422;5.514;2024-02-26T05:31:04;9.20;99.90
24226;DHT22;51462;51.422;5.514;2024-02-26T05:33:30;9.30;99.90
24226;DHT22;51462;51.422;5.514;2024-02-26T05:35:56;9.40;99.90
24226;DHT22;51462;51.422;5.514;2024-02-26T05:38:21;9.30;99.90
24226;DHT22;51462;51.422;5.514;2024-02-26T05:40:47;9.30;99.90
24226;DHT22;51462;51.422;5.514;2024-02-26T05:43:12;9.20;99.90
24226;DHT22;51462;51.422;5.514;2024-02-26T05:45:41;9.20;99.90
24226;DHT22;51462;51.422;5.514;2024-02-26T05:48:06;9.40;99.90
24226;DHT22;51462;51.422;5.514;2024-02-26T05:50:32;9.40;99.90
24226;DHT22;51462;51.422;5.514;2024-02-26T05:52:57;9.40;99.90
24226;DHT22;51462;51.422;5.514;2024-02-26T05:55:23;9.50;99.90
24226;DHT22;51462;51.422;5.514;2024-02-26T05:57:48;9.40;99.90
24226;DHT22;51462;51.422;5.514;2024-02-26T06:00:15;9.40;99.90
24226;DHT22;51462;51.422;5.514;2024-02-26T06:02:41;9.50;99.90
24226;DHT22;51462;51.422;5.514;2024-02-26T06:05:06;9.60;99.90
24226;DHT22;51462;51.422;5.514;2024-02-26T06:07:34;9.40;99.90
24226;DHT22;51462;51.422;5.514;2024-02-26T06:10:00;9.50;99.90
24226;DHT22;51462;51.422;5.514;2024-02-26T06:12:25;9.50;99.90
24226;DHT22;51462;51.422;5.514;2024-02-26T06:14:53;9.50;99.90
24226;DHT22;51462;51.422;5.514;2024-02-26T06:17:19;9.50;99.90
24226;DHT22;51462;51.422;5.514;2024-02-26T06:19:45;9.30;99.90
24226;DHT22;51462;51.422;5.514;2024-02-26T06:22:10;9.20;99.90
24226;DHT22;51462;51.422;5.514;2024-02-26T06:24:36;9.40;99.90
24226;DHT22;51462;51.422;5.514;2024-02-26T06:27:02;9.40;99.90
24226;DHT22;51462;51.422;5.514;2024-02-26T06:29:28;9.20;99.90
24226;DHT22;51462;51.422;5.514;2024-02-26T06:31:53;9.40;99.90
24226;DHT22;51462;51.422;5.514;2024-02-26T06:34:19;9.50;99.90
24226;DHT22;51462;51.422;5.514;2024-02-26T06:36:44;9.20;99.90
24226;DHT22;51462;51.422;5.514;2024-02-26T06:39:10;9.40;99.90
24226;DHT22;51462;51.422;5.514;2024-02-26T06:41:36;9.40;99.90
24226;DHT22;51462;51.422;5.514;2024-02-26T06:44:04;9.50;99.90
24226;DHT22;51462;51.422;5.514;2024-02-26T06:46:29;9.40;99.90
24226;DHT22;51462;51.422;5.514;2024-02-26T06:48:57;9.50;99.90
24226;DHT22;51462;51.422;5.514;2024-02-26T06:51:22;9.50;99.90
24226;DHT22;51462;51.422;5.514;2024-02-26T06:53:49;9.60;99.90
24226;DHT22;51462;51.422;5.514;2024-02-26T06:56:15;9.60;99.90
24226;DHT22;51462;51.422;5.514;2024-02-26T06:58:40;9.40;99.90
24226;DHT22;51462;51.422;5.514;2024-02-26T07:01:06;9.60;99.90
24226;DHT22;51462;51.422;5.514;2024-02-26T07:03:33;9.70;99.90
24226;DHT22;51462;51.422;5.514;2024-02-26T07:05:59;9.40;99.90
24226;DHT22;51462;51.422;5.514;2024-02-26T07:08:24;9.40;99.90
24226;DHT22;51462;51.422;5.514;2024-02-26T07:10:50;9.40;99.90
24226;DHT22;51462;51.422;5.514;2024-02-26T07:13:15;9.50;99.90
24226;DHT22;51462;51.422;5.514;2024-02-26T07:15:41;9.50;99.90
24226;DHT22;51462;51.422;5.514;2024-02-26T07:18:07;9.60;99.90
24226;DHT22;51462;51.422;5.514;2024-02-26T07:20:32;9.70;99.90
24226;DHT22;51462;51.422;5.514;2024-02-26T07:22:58;9.50;99.90
24226;DHT22;51462;51.422;5.514;2024-02-26T07:25:24;9.40;99.90
24226;DHT22;51462;51.422;5.514;2024-02-26T07:27:50;9.20;99.90
24226;DHT22;51462;51.422;5.514;2024-02-26T07:30:16;9.50;99.90
24226;DHT22;51462;51.422;5.514;2024-02-26T07:32:42;9.50;99.90
24226;DHT22;51462;51.422;5.514;2024-02-26T07:35:08;9.60;99.90
24226;DHT22;51462;51.422;5.514;2024-02-26T07:37:34;9.50;99.90
24226;DHT22;51462;51.422;5.514;2024-02-26T07:40:00;9.50;99.90
24226;DHT22;51462;51.422;5.514;2024-02-26T07:42:25;9.60;99.90
24226;DHT22;51462;51.422;5.514;2024-02-26T07:44:51;9.70;99.90
24226;DHT22;51462;51.422;5.514;2024-02-26T07:47:18;9.50;99.90
24226;DHT22;51462;51.422;5.514;2024-02-26T07:49:43;9.40;99.90
24226;DHT22;51462;51.422;5.514;2024-02-26T07:52:09;9.40;99.90
24226;DHT22;51462;51.422;5.514;2024-02-26T07:54:34;9.50;99.90
24226;DHT22;51462;51.422;5.514;2024-02-26T07:57:00;9.40;99.90
24226;DHT22;51462;51.422;5.514;2024-02-26T07:59:26;9.40;99.90
24226;DHT22;51462;51.422;5.514;2024-02-26T08:01:52;9.30;99.90
24226;DHT22;51462;51.422;5.514;2024-02-26T08:04:17;9.50;99.90
24226;DHT22;51462;51.422;5.514;2024-02-26T08:06:43;9.40;99.90
24226;DHT22;51462;51.422;5.514;2024-02-26T08:09:09;9.40;99.90
24226;DHT22;51462;51.422;5.514;2024-02-26T08:11:35;9.60;99.90
24226;DHT22;51462;51.422;5.514;2024-02-26T08:14:00;9.50;99.90
24226;DHT22;51462;51.422;5.514;2024-02-26T08:16:26;9.40;99.90
24226;DHT22;51462;51.422;5.514;2024-02-26T08:18:52;9.40;99.90
24226;DHT22;51462;51.422;5.514;2024-02-26T08:21:18;9.50;99.90
24226;DHT22;51462;51.422;5.514;2024-02-26T08:23:44;9.40;99.90
24226;DHT22;51462;51.422;5.514;2024-02-26T08:26:09;9.40;99.90
24226;DHT22;51462;51.422;5.514;2024-02-26T08:28:37;9.40;99.90
24226;DHT22;51462;51.422;5.514;2024-02-26T08:31:03;9.20;99.90
24226;DHT22;51462;51.422;5.514;2024-02-26T08:33:28;9.30;99.90
24226;DHT22;51462;51.422;5.514;2024-02-26T08:35:54;9.30;99.90
24226;DHT22;51462;51.422;5.514;2024-02-26T08:38:20;9.30;99.90
24226;DHT22;51462;51.422;5.514;2024-02-26T08:40:45;9.40;99.90
24226;DHT22;51462;51.422;5.514;2024-02-26T08:43:11;9.30;99.90
24226;DHT22;51462;51.422;5.514;2024-02-26T08:45:36;9.40;99.90
24226;DHT22;51462;51.422;5.514;2024-02-26T08:48:02;8.90;99.90
24226;DHT22;51462;51.422;5.514;2024-02-26T08:50:28;9.20;99.90
24226;DHT22;51462;51.422;5.514;2024-02-26T08:52:53;9.10;99.90
24226;DHT22;51462;51.422;5.514;2024-02-26T08:55:19;9.10;99.90
24226;DHT22;51462;51.422;5.514;2024-02-26T08:57:45;9.20;99.90
24226;DHT22;51462;51.422;5.514;2024-02-26T09:00:10;9.10;99.90
24226;DHT22;51462;51.422;5.514;2024-02-26T09:02:36;9.20;99.90
24226;DHT22;51462;51.422;5.514;2024-02-26T09:05:05;9.10;99.90
24226;DHT22;51462;51.422;5.514;2024-02-26T09:07:31;9.10;99.90
24226;DHT22;51462;51.422;5.514;2024-02-26T09:09:56;9.20;99.90
24226;DHT22;51462;51.422;5.514;2024-02-26T09:12:22;9.40;99.90
24226;DHT22;51462;51.422;5.514;2024-02-26T09:14:48;9.30;99.90
24226;DHT22;51462;51.422;5.514;2024-02-26T09:17:13;9.50;99.90
24226;DHT22;51462;51.422;5.514;2024-02-26T09:19:39;9.40;99.90
24226;DHT22;51462;51.422;5.514;2024-02-26T09:22:04;9.40;99.90
24226;DHT22;51462;51.422;5.514;2024-02-26T09:24:30;9.50;99.90
24226;DHT22;51462;51.422;5.514;2024-02-26T09:26:56;9.30;99.90
24226;DHT22;51462;51.422;5.514;2024-02-26T09:29:21;9.30;99.90
24226;DHT22;51462;51.422;5.514;2024-02-26T09:31:47;9.20;99.90
24226;DHT22;51462;51.422;5.514;2024-02-26T09:34:13;9.40;99.90
24226;DHT22;51462;51.422;5.514;2024-02-26T09:36:39;9.40;99.90
24226;DHT22;51462;51.422;5.514;2024-02-26T09:39:04;9.40;99.90
24226;DHT22;51462;51.422;5.514;2024-02-26T09:41:30;9.30;99.90
24226;DHT22;51462;51.422;5.514;2024-02-26T09:43:57;9.10;99.90
24226;DHT22;51462;51.422;5.514;2024-02-26T09:46:25;9.30;99.90
24226;DHT22;51462;51.422;5.514;2024-02-26T09:48:51;9.20;99.90
24226;DHT22;51462;51.422;5.514;2024-02-26T09:51:18;9.20;99.90
24226;DHT22;51462;51.422;5.514;2024-02-26T09:53:46;9.10;99.90
24226;DHT22;51462;51.422;5.514;2024-02-26T09:56:12;9.30;99.90
24226;DHT22;51462;51.422;5.514;2024-02-26T09:58:39;9.30;99.90
24226;DHT22;51462;51.422;5.514;2024-02-26T10:01:11;9.50;99.90
24226;DHT22;51462;51.422;5.514;2024-02-26T10:03:40;9.40;99.90
24226;DHT22;51462;51.422;5.514;2024-02-26T10:06:07;9.50;99.90
24226;DHT22;51462;51.422;5.514;2024-02-26T10:08:34;9.20;99.90
24226;DHT22;51462;51.422;5.514;2024-02-26T10:11:00;9.40;99.90
24226;DHT22;51462;51.422;5.514;2024-02-26T10:13:26;9.40;99.90
24226;DHT22;51462;51.422;5.514;2024-02-26T10:15:52;9.50;99.90
24226;DHT22;51462;51.422;5.514;2024-02-26T10:18:17;9.50;99.90
24226;DHT22;51462;51.422;5.514;2024-02-26T10:20:59;9.60;99.90
24226;DHT22;51462;51.422;5.514;2024-02-26T10:23:26;9.30;99.90
24226;DHT22;51462;51.422;5.514;2024-02-26T10:25:55;9.30;99.90
24226;DHT22;51462;51.422;5.514;2024-02-26T10:28:20;9.30;99.90
24226;DHT22;51462;51.422;5.514;2024-02-26T10:30:46;9.30;99.90
24226;DHT22;51462;51.422;5.514;2024-02-26T10:33:12;9.60;99.90
24226;DHT22;51462;51.422;5.514;2024-02-26T10:35:40;9.40;99.90
24226;DHT22;51462;51.422;5.514;2024-02-26T10:38:07;9.60;99.90
24226;DHT22;51462;51.422;5.514;2024-02-26T10:40:32;9.50;99.90
24226;DHT22;51462;51.422;5.514;2024-02-26T10:42:58;9.40;99.90
24226;DHT22;51462;51.422;5.514;2024-02-26T10:45:24;9.70;99.90
24226;DHT22;51462;51.422;5.514;2024-02-26T10:47:50;9.50;99.90
24226;DHT22;51462;51.422;5.514;2024-02-26T10:50:16;9.40;99.90
24226;DHT22;51462;51.422;5.514;2024-02-26T10:52:42;9.50;99.90
24226;DHT22;51462;51.422;5.514;2024-02-26T10:55:15;9.50;99.90
24226;DHT22;51462;51.422;5.514;2024-02-26T10:57:44;9.50;99.90
24226;DHT22;51462;51.422;5.514;2024-02-26T11:00:13;9.40;99.90
24226;DHT22;51462;51.422;5.514;2024-02-26T11:02:40;9.60;99.90
24226;DHT22;51462;51.422;5.514;2024-02-26T11:05:07;9.50;99.90
24226;DHT22;51462;51.422;5.514;2024-02-26T11:07:34;9.50;99.90
24226;DHT22;51462;51.422;5.514;2024-02-26T11:10:03;9.40;99.90
24226;DHT22;51462;51.422;5.514;2024-02-26T11:12:30;9.70;99.90
24226;DHT22;51462;51.422;5.514;2024-02-26T11:14:56;9.70;99.90
24226;DHT22;51462;51.422;5.514;2024-02-26T11:17:26;9.40;99.90
24226;DHT22;51462;51.422;5.514;2024-02-26T11:19:55;9.30;99.90
24226;DHT22;51462;51.422;5.514;2024-02-26T11:22:21;9.20;99.90
24226;DHT22;51462;51.422;5.514;2024-02-26T11:24:48;9.20;99.90
24226;DHT22;51462;51.422;5.514;2024-02-26T11:27:17;9.40;99.90
24226;DHT22;51462;51.422;5.514;2024-02-26T11:29:47;9.50;99.90
24226;DHT22;51462;51.422;5.514;2024-02-26T11:32:14;9.40;99.90
24226;DHT22;51462;51.422;5.514;2024-02-26T11:34:40;9.30;99.90
24226;DHT22;51462;51.422;5.514;2024-02-26T11:37:13;9.30;99.90
24226;DHT22;51462;51.422;5.514;2024-02-26T11:39:40;9.40;99.90
24226;DHT22;51462;51.422;5.514;2024-02-26T11:42:07;9.30;99.90
24226;DHT22;51462;51.422;5.514;2024-02-26T11:44:34;9.40;99.90
24226;DHT22;51462;51.422;5.514;2024-02-26T11:47:13;9.30;99.90
24226;DHT22;51462;51.422;5.514;2024-02-26T11:49:39;9.20;99.90
24226;DHT22;51462;51.422;5.514;2024-02-26T11:52:07;9.10;99.90
24226;DHT22;51462;51.422;5.514;2024-02-26T11:54:49;9.10;99.90
24226;DHT22;51462;51.422;5.514;2024-02-26T11:57:21;9.40;99.90
24226;DHT22;51462;51.422;5.514;2024-02-26T11:59:47;9.30;99.90
24226;DHT22;51462;51.422;5.514;2024-02-26T12:05:19;9.30;99.90
24226;DHT22;51462;51.422;5.514;2024-02-26T12:07:47;9.30;99.90
24226;DHT22;51462;51.422;5.514;2024-02-26T12:12:55;9.10;99.90
24226;DHT22;51462;51.422;5.514;2024-02-26T12:15:23;9.10;99.90
24226;DHT22;51462;51.422;5.514;2024-02-26T12:17:49;9.30;99.90
24226;DHT22;51462;51.422;5.514;2024-02-26T12:20:17;9.10;99.90
24226;DHT22;51462;51.422;5.514;2024-02-26T12:22:47;9.00;99.90
24226;DHT22;51462;51.422;5.514;2024-02-26T12:25:13;9.20;99.90
24226;DHT22;51462;51.422;5.514;2024-02-26T12:27:39;9.20;99.90
24226;DHT22;51462;51.422;5.514;2024-02-26T12:30:05;9.00;99.90
24226;DHT22;51462;51.422;5.514;2024-02-26T12:32:32;9.00;99.90
24226;DHT22;51462;51.422;5.514;2024-02-26T12:34:58;9.00;99.90
24226;DHT22;51462;51.422;5.514;2024-02-26T12:37:23;8.80;99.90
24226;DHT22;51462;51.422;5.514;2024-02-26T12:39:50;9.00;99.90
24226;DHT22;51462;51.422;5.514;2024-02-26T12:42:15;8.80;99.90
24226;DHT22;51462;51.422;5.514;2024-02-26T12:44:41;9.10;99.90
24226;DHT22;51462;51.422;5.514;2024-02-26T12:47:06;9.20;99.90
24226;DHT22;51462;51.422;5.514;2024-02-26T12:49:32;9.10;99.90
24226;DHT22;51462;51.422;5.514;2024-02-26T12:51:57;9.10;99.90
24226;DHT22;51462;51.422;5.514;2024-02-26T12:54:33;9.00;99.90
24226;DHT22;51462;51.422;5.514;2024-02-26T12:57:07;9.00;99.90
24226;DHT22;51462;51.422;5.514;2024-02-26T12:59:34;9.10;99.90
24226;DHT22;51462;51.422;5.514;2024-02-26T13:02:00;8.90;99.90
24226;DHT22;51462;51.422;5.514;2024-02-26T13:04:29;8.80;99.90
24226;DHT22;51462;51.422;5.514;2024-02-26T13:06:56;8.70;99.90
24226;DHT22;51462;51.422;5.514;2024-02-26T13:09:26;9.00;99.90
24226;DHT22;51462;51.422;5.514;2024-02-26T13:11:54;8.90;99.90
24226;DHT22;51462;51.422;5.514;2024-02-26T13:14:23;9.00;99.90
24226;DHT22;51462;51.422;5.514;2024-02-26T13:16:58;9.00;99.90
24226;DHT22;51462;51.422;5.514;2024-02-26T13:19:24;8.90;99.90
24226;DHT22;51462;51.422;5.514;2024-02-26T13:21:49;9.10;99.90
24226;DHT22;51462;51.422;5.514;2024-02-26T13:24:15;9.40;99.90
24226;DHT22;51462;51.422;5.514;2024-02-26T13:26:41;9.40;99.90
24226;DHT22;51462;51.422;5.514;2024-02-26T13:29:07;9.30;99.90
24226;DHT22;51462;51.422;5.514;2024-02-26T13:31:39;9.40;99.90
24226;DHT22;51462;51.422;5.514;2024-02-26T13:34:07;9.30;99.90
24226;DHT22;51462;51.422;5.514;2024-02-26T13:36:33;9.30;99.90
24226;DHT22;51462;51.422;5.514;2024-02-26T13:38:59;9.20;99.90
24226;DHT22;51462;51.422;5.514;2024-02-26T13:41:25;9.40;99.90
24226;DHT22;51462;51.422;5.514;2024-02-26T13:43:51;9.10;99.90
24226;DHT22;51462;51.422;5.514;2024-02-26T13:46:17;9.10;99.90
24226;DHT22;51462;51.422;5.514;2024-02-26T13:48:43;9.20;99.90
24226;DHT22;51462;51.422;5.514;2024-02-26T13:51:09;9.30;99.90
24226;DHT22;51462;51.422;5.514;2024-02-26T13:53:34;9.30;99.90
24226;DHT22;51462;51.422;5.514;2024-02-26T13:56:00;9.70;99.90
24226;DHT22;51462;51.422;5.514;2024-02-26T13:58:27;9.70;99.90
24226;DHT22;51462;51.422;5.514;2024-02-26T14:00:55;9.40;99.90
24226;DHT22;51462;51.422;5.514;2024-02-26T14:03:21;9.20;99.90
24226;DHT22;51462;51.422;5.514;2024-02-26T14:05:50;9.20;99.90
24226;DHT22;51462;51.422;5.514;2024-02-26T14:08:15;9.30;99.90
24226;DHT22;51462;51.422;5.514;2024-02-26T14:10:41;9.50;99.90
24226;DHT22;51462;51.422;5.514;2024-02-26T14:13:07;9.50;99.90
24226;DHT22;51462;51.422;5.514;2024-02-26T14:15:33;9.60;99.90
24226;DHT22;51462;51.422;5.514;2024-02-26T14:18:00;9.60;99.90
24226;DHT22;51462;51.422;5.514;2024-02-26T14:20:28;9.60;99.90
24226;DHT22;51462;51.422;5.514;2024-02-26T14:22:53;9.40;99.90
24226;DHT22;51462;51.422;5.514;2024-02-26T14:25:22;9.50;99.90
24226;DHT22;51462;51.422;5.514;2024-02-26T14:27:48;9.40;99.90
24226;DHT22;51462;51.422;5.514;2024-02-26T14:30:14;9.20;99.90
24226;DHT22;51462;51.422;5.514;2024-02-26T14:32:40;9.30;99.90
24226;DHT22;51462;51.422;5.514;2024-02-26T14:35:07;9.20;99.90
24226;DHT22;51462;51.422;5.514;2024-02-26T14:37:33;9.20;99.90
24226;DHT22;51462;51.422;5.514;2024-02-26T14:39:59;9.30;99.90
24226;DHT22;51462;51.422;5.514;2024-02-26T14:42:27;9.40;99.90
24226;DHT22;51462;51.422;5.514;2024-02-26T14:44:52;9.40;99.90
24226;DHT22;51462;51.422;5.514;2024-02-26T14:47:18;9.30;99.90
24226;DHT22;51462;51.422;5.514;2024-02-26T14:49:46;9.30;99.90
24226;DHT22;51462;51.422;5.514;2024-02-26T14:52:16;9.30;99.90
24226;DHT22;51462;51.422;5.514;2024-02-26T14:54:42;9.20;99.90
24226;DHT22;51462;51.422;5.514;2024-02-26T14:57:08;9.00;99.90
24226;DHT22;51462;51.422;5.514;2024-02-26T14:59:33;9.30;99.90
24226;DHT22;51462;51.422;5.514;2024-02-26T15:02:01;9.20;99.90
24226;DHT22;51462;51.422;5.514;2024-02-26T15:04:27;9.10;99.90
24226;DHT22;51462;51.422;5.514;2024-02-26T15:06:53;9.20;99.90
24226;DHT22;51462;51.422;5.514;2024-02-26T15:09:18;9.20;99.90
24226;DHT22;51462;51.422;5.514;2024-02-26T15:11:44;9.10;99.90
24226;DHT22;51462;51.422;5.514;2024-02-26T15:14:10;9.20;99.90
24226;DHT22;51462;51.422;5.514;2024-02-26T15:16:36;9.20;99.90
24226;DHT22;51462;51.422;5.514;2024-02-26T15:19:02;9.00;99.90
24226;DHT22;51462;51.422;5.514;2024-02-26T15:21:29;9.20;99.90
24226;DHT22;51462;51.422;5.514;2024-02-26T15:23:55;9.30;99.90
24226;DHT22;51462;51.422;5.514;2024-02-26T15:26:20;9.20;99.90
24226;DHT22;51462;51.422;5.514;2024-02-26T15:28:47;9.00;99.90
24226;DHT22;51462;51.422;5.514;2024-02-26T15:31:15;9.00;99.90
24226;DHT22;51462;51.422;5.514;2024-02-26T15:33:41;9.20;99.90
24226;DHT22;51462;51.422;5.514;2024-02-26T15:36:08;9.10;99.90
24226;DHT22;51462;51.422;5.514;2024-02-26T15:38:35;9.10;99.90
24226;DHT22;51462;51.422;5.514;2024-02-26T15:41:01;9.00;99.90
24226;DHT22;51462;51.422;5.514;2024-02-26T15:43:27;9.00;99.90
24226;DHT22;51462;51.422;5.514;2024-02-26T15:45:52;8.80;99.90